Terminal Aerodrome Forecast
Issued by NWS

Home | Current Version | Previous Version | Graphics & Text | Print | Product List | Glossary On
Versions: 1 2 3 4 5 6 7 8 9 10 11 12 13 14 15 16 17 18 19 20 21 22 23 24
491
FTUS43 KABR 020520
TAFMBG
TAF
KMBG 020520Z 0206/0306 VRB03KT P6SM BKN016 OVC030
     FM021100 VRB05KT 5SM BR OVC010
     FM021600 VRB03KT P6SM OVC020
     FM022100 VRB03KT P6SM BKN035=

USA.gov is the U.S. government's official web portal to all federal, state and local government web resources and services.